sensor_id;sensor_type;location;lat;lon;timestamp;P1;durP1;ratioP1;P2;durP2;ratioP2
29574;SDS011;16507;51.046;6.406;2023-12-14T00:01:50;71.43;;;26.13;;
29574;SDS011;16507;51.046;6.406;2023-12-14T00:04:16;71.82;;;26.55;;
29574;SDS011;16507;51.046;6.406;2023-12-14T00:06:41;69.78;;;25.98;;
29574;SDS011;16507;51.046;6.406;2023-12-14T00:09:07;74.95;;;25.83;;
29574;SDS011;16507;51.046;6.406;2023-12-14T00:11:37;78.72;;;26.52;;
29574;SDS011;16507;51.046;6.406;2023-12-14T00:14:06;81.18;;;26.27;;
29574;SDS011;16507;51.046;6.406;2023-12-14T00:16:32;72.50;;;26.65;;
29574;SDS011;16507;51.046;6.406;2023-12-14T00:18:57;77.78;;;25.52;;
29574;SDS011;16507;51.046;6.406;2023-12-14T00:21:23;76.25;;;26.55;;
29574;SDS011;16507;51.046;6.406;2023-12-14T00:23:49;69.28;;;26.67;;
29574;SDS011;16507;51.046;6.406;2023-12-14T00:26:14;66.00;;;26.15;;
29574;SDS011;16507;51.046;6.406;2023-12-14T00:28:40;70.10;;;25.88;;
29574;SDS011;16507;51.046;6.406;2023-12-14T00:31:05;70.70;;;26.77;;
29574;SDS011;16507;51.046;6.406;2023-12-14T00:33:31;64.97;;;26.15;;
29574;SDS011;16507;51.046;6.406;2023-12-14T00:35:57;69.03;;;26.27;;
29574;SDS011;16507;51.046;6.406;2023-12-14T00:38:22;73.50;;;27.08;;
29574;SDS011;16507;51.046;6.406;2023-12-14T00:40:48;80.28;;;28.00;;
29574;SDS011;16507;51.046;6.406;2023-12-14T00:43:14;77.85;;;28.65;;
29574;SDS011;16507;51.046;6.406;2023-12-14T00:45:39;83.57;;;29.63;;
29574;SDS011;16507;51.046;6.406;2023-12-14T00:48:06;76.93;;;29.20;;
29574;SDS011;16507;51.046;6.406;2023-12-14T00:50:32;76.25;;;29.45;;
29574;SDS011;16507;51.046;6.406;2023-12-14T00:52:57;80.55;;;28.75;;
29574;SDS011;16507;51.046;6.406;2023-12-14T00:55:23;76.50;;;28.75;;
29574;SDS011;16507;51.046;6.406;2023-12-14T00:57:49;76.80;;;28.70;;
29574;SDS011;16507;51.046;6.406;2023-12-14T01:00:14;80.45;;;28.27;;
29574;SDS011;16507;51.046;6.406;2023-12-14T01:02:40;80.72;;;28.08;;
29574;SDS011;16507;51.046;6.406;2023-12-14T01:05:06;79.97;;;28.88;;
29574;SDS011;16507;51.046;6.406;2023-12-14T01:07:32;82.10;;;29.52;;
29574;SDS011;16507;51.046;6.406;2023-12-14T01:09:57;71.68;;;27.17;;
29574;SDS011;16507;51.046;6.406;2023-12-14T01:12:23;70.72;;;27.58;;
29574;SDS011;16507;51.046;6.406;2023-12-14T01:14:49;62.65;;;25.63;;
29574;SDS011;16507;51.046;6.406;2023-12-14T01:17:14;63.60;;;25.27;;
29574;SDS011;16507;51.046;6.406;2023-12-14T01:19:40;59.00;;;21.80;;
29574;SDS011;16507;51.046;6.406;2023-12-14T01:22:06;64.60;;;22.42;;
29574;SDS011;16507;51.046;6.406;2023-12-14T01:24:32;56.03;;;23.20;;
29574;SDS011;16507;51.046;6.406;2023-12-14T01:26:57;45.78;;;19.95;;
29574;SDS011;16507;51.046;6.406;2023-12-14T01:29:23;38.38;;;18.15;;
29574;SDS011;16507;51.046;6.406;2023-12-14T01:31:48;30.92;;;14.30;;
29574;SDS011;16507;51.046;6.406;2023-12-14T01:34:14;28.90;;;14.02;;
29574;SDS011;16507;51.046;6.406;2023-12-14T01:36:40;27.60;;;12.77;;
29574;SDS011;16507;51.046;6.406;2023-12-14T01:39:06;24.85;;;12.65;;
29574;SDS011;16507;51.046;6.406;2023-12-14T01:41:32;21.38;;;12.00;;
29574;SDS011;16507;51.046;6.406;2023-12-14T01:43:58;23.70;;;12.10;;
29574;SDS011;16507;51.046;6.406;2023-12-14T01:46:23;25.83;;;13.35;;
29574;SDS011;16507;51.046;6.406;2023-12-14T01:48:49;28.90;;;12.90;;
29574;SDS011;16507;51.046;6.406;2023-12-14T01:51:16;33.47;;;14.55;;
29574;SDS011;16507;51.046;6.406;2023-12-14T01:53:42;24.67;;;11.57;;
29574;SDS011;16507;51.046;6.406;2023-12-14T01:56:08;20.83;;;11.13;;
29574;SDS011;16507;51.046;6.406;2023-12-14T01:58:34;23.25;;;11.80;;
29574;SDS011;16507;51.046;6.406;2023-12-14T02:04:00;23.27;;;11.35;;
29574;SDS011;16507;51.046;6.406;2023-12-14T02:06:26;30.38;;;12.80;;
29574;SDS011;16507;51.046;6.406;2023-12-14T02:08:52;27.98;;;11.93;;
29574;SDS011;16507;51.046;6.406;2023-12-14T02:11:18;29.63;;;12.57;;
29574;SDS011;16507;51.046;6.406;2023-12-14T02:13:43;26.13;;;12.20;;
29574;SDS011;16507;51.046;6.406;2023-12-14T02:16:09;29.70;;;12.52;;
29574;SDS011;16507;51.046;6.406;2023-12-14T02:18:37;38.08;;;14.00;;
29574;SDS011;16507;51.046;6.406;2023-12-14T02:21:03;49.67;;;14.88;;
29574;SDS011;16507;51.046;6.406;2023-12-14T02:23:29;56.55;;;15.45;;
29574;SDS011;16507;51.046;6.406;2023-12-14T02:25:55;47.30;;;15.05;;
29574;SDS011;16507;51.046;6.406;2023-12-14T02:28:24;51.70;;;15.82;;
29574;SDS011;16507;51.046;6.406;2023-12-14T02:30:49;51.78;;;16.13;;
29574;SDS011;16507;51.046;6.406;2023-12-14T02:33:15;43.92;;;15.27;;
29574;SDS011;16507;51.046;6.406;2023-12-14T02:35:40;43.67;;;16.10;;
29574;SDS011;16507;51.046;6.406;2023-12-14T02:38:07;32.03;;;12.77;;
29574;SDS011;16507;51.046;6.406;2023-12-14T02:40:33;47.60;;;14.68;;
29574;SDS011;16507;51.046;6.406;2023-12-14T02:42:58;52.15;;;16.35;;
29574;SDS011;16507;51.046;6.406;2023-12-14T02:45:24;62.10;;;16.90;;
29574;SDS011;16507;51.046;6.406;2023-12-14T02:47:50;59.08;;;16.73;;
29574;SDS011;16507;51.046;6.406;2023-12-14T02:50:19;69.28;;;20.55;;
29574;SDS011;16507;51.046;6.406;2023-12-14T02:52:45;88.72;;;20.77;;
29574;SDS011;16507;51.046;6.406;2023-12-14T02:55:10;103.82;;;22.05;;
29574;SDS011;16507;51.046;6.406;2023-12-14T02:57:36;101.18;;;22.38;;
29574;SDS011;16507;51.046;6.406;2023-12-14T03:00:01;111.80;;;21.58;;
29574;SDS011;16507;51.046;6.406;2023-12-14T03:02:28;134.40;;;24.50;;
29574;SDS011;16507;51.046;6.406;2023-12-14T03:04:53;110.35;;;22.30;;
29574;SDS011;16507;51.046;6.406;2023-12-14T03:07:19;103.45;;;24.00;;
29574;SDS011;16507;51.046;6.406;2023-12-14T03:09:44;75.28;;;23.50;;
29574;SDS011;16507;51.046;6.406;2023-12-14T03:12:10;83.28;;;23.65;;
29574;SDS011;16507;51.046;6.406;2023-12-14T03:14:36;68.72;;;22.42;;
29574;SDS011;16507;51.046;6.406;2023-12-14T03:17:02;74.32;;;23.45;;
29574;SDS011;16507;51.046;6.406;2023-12-14T03:19:28;85.30;;;23.35;;
29574;SDS011;16507;51.046;6.406;2023-12-14T03:21:53;114.97;;;25.42;;
29574;SDS011;16507;51.046;6.406;2023-12-14T03:24:19;106.47;;;24.90;;
29574;SDS011;16507;51.046;6.406;2023-12-14T03:26:45;99.60;;;24.50;;
29574;SDS011;16507;51.046;6.406;2023-12-14T03:29:11;90.18;;;23.98;;
29574;SDS011;16507;51.046;6.406;2023-12-14T03:31:36;71.20;;;22.38;;
29574;SDS011;16507;51.046;6.406;2023-12-14T03:34:02;92.00;;;23.45;;
29574;SDS011;16507;51.046;6.406;2023-12-14T03:36:28;86.93;;;23.45;;
29574;SDS011;16507;51.046;6.406;2023-12-14T03:38:53;90.35;;;22.35;;
29574;SDS011;16507;51.046;6.406;2023-12-14T03:41:19;108.60;;;25.08;;
29574;SDS011;16507;51.046;6.406;2023-12-14T03:43:45;122.55;;;25.30;;
29574;SDS011;16507;51.046;6.406;2023-12-14T03:46:11;121.78;;;24.92;;
29574;SDS011;16507;51.046;6.406;2023-12-14T03:48:36;86.05;;;24.55;;
29574;SDS011;16507;51.046;6.406;2023-12-14T03:51:03;71.97;;;23.58;;
29574;SDS011;16507;51.046;6.406;2023-12-14T03:53:29;74.90;;;23.23;;
29574;SDS011;16507;51.046;6.406;2023-12-14T03:55:55;80.38;;;23.77;;
29574;SDS011;16507;51.046;6.406;2023-12-14T03:58:20;78.60;;;24.33;;
29574;SDS011;16507;51.046;6.406;2023-12-14T04:00:46;79.00;;;23.35;;
29574;SDS011;16507;51.046;6.406;2023-12-14T04:03:12;83.60;;;24.48;;
29574;SDS011;16507;51.046;6.406;2023-12-14T04:05:37;71.30;;;23.75;;
29574;SDS011;16507;51.046;6.406;2023-12-14T04:08:04;78.30;;;24.45;;
29574;SDS011;16507;51.046;6.406;2023-12-14T04:10:29;75.90;;;24.08;;
29574;SDS011;16507;51.046;6.406;2023-12-14T04:12:55;69.72;;;24.80;;
29574;SDS011;16507;51.046;6.406;2023-12-14T04:15:21;65.55;;;23.25;;
29574;SDS011;16507;51.046;6.406;2023-12-14T04:17:46;67.10;;;24.13;;
29574;SDS011;16507;51.046;6.406;2023-12-14T04:20:12;72.45;;;23.75;;
29574;SDS011;16507;51.046;6.406;2023-12-14T04:22:40;68.90;;;22.65;;
29574;SDS011;16507;51.046;6.406;2023-12-14T04:25:09;64.93;;;22.83;;
29574;SDS011;16507;51.046;6.406;2023-12-14T04:27:35;70.68;;;24.20;;
29574;SDS011;16507;51.046;6.406;2023-12-14T04:30:01;75.68;;;25.50;;
29574;SDS011;16507;51.046;6.406;2023-12-14T04:32:27;72.55;;;25.00;;
29574;SDS011;16507;51.046;6.406;2023-12-14T04:34:52;80.15;;;25.75;;
29574;SDS011;16507;51.046;6.406;2023-12-14T04:37:18;81.68;;;25.02;;
29574;SDS011;16507;51.046;6.406;2023-12-14T04:39:43;100.97;;;26.90;;
29574;SDS011;16507;51.046;6.406;2023-12-14T04:42:09;108.55;;;26.45;;
29574;SDS011;16507;51.046;6.406;2023-12-14T04:44:35;113.45;;;25.38;;
29574;SDS011;16507;51.046;6.406;2023-12-14T04:47:00;79.97;;;23.08;;
29574;SDS011;16507;51.046;6.406;2023-12-14T04:49:26;102.45;;;24.98;;
29574;SDS011;16507;51.046;6.406;2023-12-14T04:51:52;98.25;;;24.52;;
29574;SDS011;16507;51.046;6.406;2023-12-14T04:54:17;111.72;;;26.35;;
29574;SDS011;16507;51.046;6.406;2023-12-14T04:56:45;157.05;;;27.98;;
29574;SDS011;16507;51.046;6.406;2023-12-14T04:59:11;149.60;;;28.25;;
29574;SDS011;16507;51.046;6.406;2023-12-14T05:01:36;234.18;;;30.55;;
29574;SDS011;16507;51.046;6.406;2023-12-14T05:04:02;184.68;;;29.40;;
29574;SDS011;16507;51.046;6.406;2023-12-14T05:06:28;158.93;;;28.60;;
29574;SDS011;16507;51.046;6.406;2023-12-14T05:08:54;174.43;;;29.63;;
29574;SDS011;16507;51.046;6.406;2023-12-14T05:11:20;103.15;;;26.02;;
29574;SDS011;16507;51.046;6.406;2023-12-14T05:13:49;88.53;;;26.42;;
29574;SDS011;16507;51.046;6.406;2023-12-14T05:16:14;75.60;;;24.08;;
29574;SDS011;16507;51.046;6.406;2023-12-14T05:18:40;61.78;;;21.05;;
29574;SDS011;16507;51.046;6.406;2023-12-14T05:21:06;77.70;;;21.35;;
29574;SDS011;16507;51.046;6.406;2023-12-14T05:23:32;68.20;;;20.77;;
29574;SDS011;16507;51.046;6.406;2023-12-14T05:25:58;72.60;;;20.58;;
29574;SDS011;16507;51.046;6.406;2023-12-14T05:28:23;62.38;;;18.42;;
29574;SDS011;16507;51.046;6.406;2023-12-14T05:30:49;74.07;;;18.95;;
29574;SDS011;16507;51.046;6.406;2023-12-14T05:33:15;64.28;;;17.15;;
29574;SDS011;16507;51.046;6.406;2023-12-14T05:35:40;66.28;;;18.73;;
29574;SDS011;16507;51.046;6.406;2023-12-14T05:38:06;63.38;;;18.40;;
29574;SDS011;16507;51.046;6.406;2023-12-14T05:40:31;55.83;;;18.05;;
29574;SDS011;16507;51.046;6.406;2023-12-14T05:42:57;66.40;;;19.52;;
29574;SDS011;16507;51.046;6.406;2023-12-14T05:45:23;58.75;;;18.75;;
29574;SDS011;16507;51.046;6.406;2023-12-14T05:47:49;66.45;;;19.65;;
29574;SDS011;16507;51.046;6.406;2023-12-14T05:50:16;66.72;;;20.55;;
29574;SDS011;16507;51.046;6.406;2023-12-14T05:52:41;79.35;;;21.40;;
29574;SDS011;16507;51.046;6.406;2023-12-14T05:55:07;69.45;;;20.20;;
29574;SDS011;16507;51.046;6.406;2023-12-14T05:57:35;79.35;;;21.75;;
29574;SDS011;16507;51.046;6.406;2023-12-14T06:00:01;72.63;;;21.48;;
29574;SDS011;16507;51.046;6.406;2023-12-14T06:02:29;69.30;;;22.42;;
29574;SDS011;16507;51.046;6.406;2023-12-14T06:04:55;69.38;;;22.05;;
29574;SDS011;16507;51.046;6.406;2023-12-14T06:07:22;63.67;;;21.05;;
29574;SDS011;16507;51.046;6.406;2023-12-14T06:09:48;66.97;;;21.52;;
29574;SDS011;16507;51.046;6.406;2023-12-14T06:12:14;70.97;;;21.45;;
29574;SDS011;16507;51.046;6.406;2023-12-14T06:14:40;74.25;;;23.15;;
29574;SDS011;16507;51.046;6.406;2023-12-14T06:17:05;88.63;;;22.85;;
29574;SDS011;16507;51.046;6.406;2023-12-14T06:19:31;69.50;;;21.75;;
29574;SDS011;16507;51.046;6.406;2023-12-14T06:21:57;79.28;;;22.23;;
29574;SDS011;16507;51.046;6.406;2023-12-14T06:24:23;84.43;;;22.00;;
29574;SDS011;16507;51.046;6.406;2023-12-14T06:26:49;91.43;;;22.38;;
29574;SDS011;16507;51.046;6.406;2023-12-14T06:29:14;87.45;;;22.23;;
29574;SDS011;16507;51.046;6.406;2023-12-14T06:31:40;55.03;;;19.70;;
29574;SDS011;16507;51.046;6.406;2023-12-14T06:34:06;57.38;;;19.38;;
29574;SDS011;16507;51.046;6.406;2023-12-14T06:36:34;71.88;;;20.60;;
29574;SDS011;16507;51.046;6.406;2023-12-14T06:39:01;71.47;;;20.58;;
29574;SDS011;16507;51.046;6.406;2023-12-14T06:41:28;91.50;;;20.73;;
29574;SDS011;16507;51.046;6.406;2023-12-14T06:43:54;97.57;;;21.50;;
29574;SDS011;16507;51.046;6.406;2023-12-14T06:46:20;64.97;;;21.63;;
29574;SDS011;16507;51.046;6.406;2023-12-14T06:48:46;59.63;;;19.73;;
29574;SDS011;16507;51.046;6.406;2023-12-14T06:51:12;53.72;;;20.38;;
29574;SDS011;16507;51.046;6.406;2023-12-14T06:53:39;49.05;;;19.13;;
29574;SDS011;16507;51.046;6.406;2023-12-14T06:56:06;58.13;;;20.67;;
29574;SDS011;16507;51.046;6.406;2023-12-14T06:58:36;60.28;;;20.75;;
29574;SDS011;16507;51.046;6.406;2023-12-14T07:01:05;70.72;;;24.25;;
29574;SDS011;16507;51.046;6.406;2023-12-14T07:03:31;69.90;;;22.65;;
29574;SDS011;16507;51.046;6.406;2023-12-14T07:05:57;80.40;;;25.38;;
29574;SDS011;16507;51.046;6.406;2023-12-14T07:08:23;82.13;;;26.08;;
29574;SDS011;16507;51.046;6.406;2023-12-14T07:10:49;73.13;;;24.25;;
29574;SDS011;16507;51.046;6.406;2023-12-14T07:13:15;72.40;;;24.15;;
29574;SDS011;16507;51.046;6.406;2023-12-14T07:15:40;77.00;;;24.73;;
29574;SDS011;16507;51.046;6.406;2023-12-14T07:18:06;84.93;;;27.45;;
29574;SDS011;16507;51.046;6.406;2023-12-14T07:20:32;74.78;;;26.98;;
29574;SDS011;16507;51.046;6.406;2023-12-14T07:22:58;67.80;;;25.02;;
29574;SDS011;16507;51.046;6.406;2023-12-14T07:25:23;59.85;;;23.70;;
29574;SDS011;16507;51.046;6.406;2023-12-14T07:27:49;55.03;;;20.80;;
29574;SDS011;16507;51.046;6.406;2023-12-14T07:30:16;64.60;;;22.90;;
29574;SDS011;16507;51.046;6.406;2023-12-14T07:32:41;58.15;;;23.70;;
29574;SDS011;16507;51.046;6.406;2023-12-14T07:35:07;58.22;;;24.15;;
29574;SDS011;16507;51.046;6.406;2023-12-14T07:37:33;63.55;;;25.95;;
29574;SDS011;16507;51.046;6.406;2023-12-14T07:39:59;60.00;;;23.88;;
29574;SDS011;16507;51.046;6.406;2023-12-14T07:42:24;59.92;;;24.77;;
29574;SDS011;16507;51.046;6.406;2023-12-14T07:44:50;66.20;;;24.40;;
29574;SDS011;16507;51.046;6.406;2023-12-14T07:47:16;60.42;;;22.35;;
29574;SDS011;16507;51.046;6.406;2023-12-14T07:49:42;51.33;;;20.33;;
29574;SDS011;16507;51.046;6.406;2023-12-14T07:52:07;60.22;;;24.30;;
29574;SDS011;16507;51.046;6.406;2023-12-14T07:54:34;50.53;;;22.20;;
29574;SDS011;16507;51.046;6.406;2023-12-14T07:57:00;46.97;;;21.20;;
29574;SDS011;16507;51.046;6.406;2023-12-14T07:59:26;53.85;;;22.55;;
29574;SDS011;16507;51.046;6.406;2023-12-14T08:01:52;57.67;;;22.75;;
29574;SDS011;16507;51.046;6.406;2023-12-14T08:04:17;52.58;;;21.67;;
29574;SDS011;16507;51.046;6.406;2023-12-14T08:06:43;49.92;;;22.08;;
29574;SDS011;16507;51.046;6.406;2023-12-14T08:09:08;49.83;;;22.80;;
29574;SDS011;16507;51.046;6.406;2023-12-14T08:11:34;53.90;;;23.27;;
29574;SDS011;16507;51.046;6.406;2023-12-14T08:14:00;57.67;;;23.33;;
29574;SDS011;16507;51.046;6.406;2023-12-14T08:16:25;58.28;;;24.33;;
29574;SDS011;16507;51.046;6.406;2023-12-14T08:18:51;61.92;;;23.58;;
29574;SDS011;16507;51.046;6.406;2023-12-14T08:21:17;61.50;;;25.25;;
29574;SDS011;16507;51.046;6.406;2023-12-14T08:23:43;58.17;;;24.70;;
29574;SDS011;16507;51.046;6.406;2023-12-14T08:26:09;60.78;;;23.83;;
29574;SDS011;16507;51.046;6.406;2023-12-14T08:28:38;54.75;;;22.38;;
29574;SDS011;16507;51.046;6.406;2023-12-14T08:31:04;51.05;;;22.55;;
29574;SDS011;16507;51.046;6.406;2023-12-14T08:33:30;47.08;;;22.05;;
29574;SDS011;16507;51.046;6.406;2023-12-14T08:35:56;52.13;;;20.73;;
29574;SDS011;16507;51.046;6.406;2023-12-14T08:38:21;47.80;;;21.10;;
29574;SDS011;16507;51.046;6.406;2023-12-14T08:40:47;43.28;;;21.55;;
29574;SDS011;16507;51.046;6.406;2023-12-14T08:43:13;41.95;;;20.40;;
29574;SDS011;16507;51.046;6.406;2023-12-14T08:45:41;45.75;;;21.60;;
29574;SDS011;16507;51.046;6.406;2023-12-14T08:48:07;42.80;;;21.30;;
29574;SDS011;16507;51.046;6.406;2023-12-14T08:50:33;40.50;;;19.85;;
29574;SDS011;16507;51.046;6.406;2023-12-14T08:52:58;41.38;;;21.77;;
29574;SDS011;16507;51.046;6.406;2023-12-14T08:55:24;47.70;;;21.60;;
29574;SDS011;16507;51.046;6.406;2023-12-14T08:57:51;38.97;;;20.95;;
29574;SDS011;16507;51.046;6.406;2023-12-14T09:00:17;46.22;;;22.45;;
29574;SDS011;16507;51.046;6.406;2023-12-14T09:02:43;49.85;;;23.42;;
29574;SDS011;16507;51.046;6.406;2023-12-14T09:05:11;46.75;;;22.75;;
29574;SDS011;16507;51.046;6.406;2023-12-14T09:07:37;46.95;;;22.33;;
29574;SDS011;16507;51.046;6.406;2023-12-14T09:10:03;41.63;;;22.02;;
29574;SDS011;16507;51.046;6.406;2023-12-14T09:12:29;47.33;;;22.23;;
29574;SDS011;16507;51.046;6.406;2023-12-14T09:14:55;51.97;;;24.50;;
29574;SDS011;16507;51.046;6.406;2023-12-14T09:17:21;46.88;;;23.52;;
29574;SDS011;16507;51.046;6.406;2023-12-14T09:19:47;49.50;;;22.33;;
29574;SDS011;16507;51.046;6.406;2023-12-14T09:22:13;47.10;;;22.75;;
29574;SDS011;16507;51.046;6.406;2023-12-14T09:24:38;51.65;;;22.95;;
29574;SDS011;16507;51.046;6.406;2023-12-14T09:27:04;41.75;;;22.20;;
29574;SDS011;16507;51.046;6.406;2023-12-14T09:29:30;43.25;;;22.38;;
29574;SDS011;16507;51.046;6.406;2023-12-14T09:31:55;43.65;;;20.83;;
29574;SDS011;16507;51.046;6.406;2023-12-14T09:34:21;48.50;;;22.23;;
29574;SDS011;16507;51.046;6.406;2023-12-14T09:36:46;49.53;;;21.80;;
29574;SDS011;16507;51.046;6.406;2023-12-14T09:39:12;42.22;;;21.08;;
29574;SDS011;16507;51.046;6.406;2023-12-14T09:41:38;43.70;;;21.65;;
29574;SDS011;16507;51.046;6.406;2023-12-14T09:44:05;43.33;;;21.92;;
29574;SDS011;16507;51.046;6.406;2023-12-14T09:46:33;39.40;;;21.10;;
29574;SDS011;16507;51.046;6.406;2023-12-14T09:49:01;40.42;;;21.20;;
29574;SDS011;16507;51.046;6.406;2023-12-14T09:51:29;40.28;;;19.23;;
29574;SDS011;16507;51.046;6.406;2023-12-14T09:53:55;38.33;;;19.90;;
29574;SDS011;16507;51.046;6.406;2023-12-14T09:56:24;37.05;;;19.90;;
29574;SDS011;16507;51.046;6.406;2023-12-14T09:58:50;36.20;;;19.48;;
29574;SDS011;16507;51.046;6.406;2023-12-14T10:01:25;39.13;;;20.13;;
29574;SDS011;16507;51.046;6.406;2023-12-14T10:04:11;35.78;;;19.23;;
29574;SDS011;16507;51.046;6.406;2023-12-14T10:06:42;34.92;;;19.52;;
29574;SDS011;16507;51.046;6.406;2023-12-14T10:09:09;32.92;;;18.23;;
29574;SDS011;16507;51.046;6.406;2023-12-14T10:11:38;33.47;;;18.25;;
29574;SDS011;16507;51.046;6.406;2023-12-14T10:14:17;32.60;;;18.52;;
29574;SDS011;16507;51.046;6.406;2023-12-14T10:16:46;39.72;;;20.40;;
29574;SDS011;16507;51.046;6.406;2023-12-14T10:19:13;36.00;;;20.52;;
29574;SDS011;16507;51.046;6.406;2023-12-14T10:21:39;34.95;;;19.63;;
29574;SDS011;16507;51.046;6.406;2023-12-14T10:24:06;38.50;;;20.88;;
29574;SDS011;16507;51.046;6.406;2023-12-14T10:26:31;41.72;;;21.38;;
29574;SDS011;16507;51.046;6.406;2023-12-14T10:28:57;42.17;;;22.38;;
29574;SDS011;16507;51.046;6.406;2023-12-14T10:31:23;37.70;;;20.92;;
29574;SDS011;16507;51.046;6.406;2023-12-14T10:33:51;36.95;;;20.98;;
29574;SDS011;16507;51.046;6.406;2023-12-14T10:36:21;35.65;;;20.90;;
29574;SDS011;16507;51.046;6.406;2023-12-14T10:38:52;46.70;;;21.10;;
29574;SDS011;16507;51.046;6.406;2023-12-14T10:41:18;37.00;;;20.48;;
29574;SDS011;16507;51.046;6.406;2023-12-14T10:43:48;38.53;;;20.60;;
29574;SDS011;16507;51.046;6.406;2023-12-14T10:46:16;36.22;;;22.00;;
29574;SDS011;16507;51.046;6.406;2023-12-14T10:48:43;43.13;;;21.70;;
29574;SDS011;16507;51.046;6.406;2023-12-14T10:51:12;36.10;;;19.95;;
29574;SDS011;16507;51.046;6.406;2023-12-14T10:53:38;35.75;;;19.80;;
29574;SDS011;16507;51.046;6.406;2023-12-14T10:56:04;38.60;;;19.52;;
29574;SDS011;16507;51.046;6.406;2023-12-14T10:58:47;42.63;;;22.33;;
29574;SDS011;16507;51.046;6.406;2023-12-14T11:01:14;40.33;;;20.17;;
29574;SDS011;16507;51.046;6.406;2023-12-14T11:03:41;37.47;;;20.17;;
29574;SDS011;16507;51.046;6.406;2023-12-14T11:06:26;38.85;;;19.20;;
29574;SDS011;16507;51.046;6.406;2023-12-14T11:08:59;44.78;;;21.38;;
29574;SDS011;16507;51.046;6.406;2023-12-14T11:11:31;39.83;;;21.33;;
29574;SDS011;16507;51.046;6.406;2023-12-14T11:14:28;49.38;;;21.90;;
29574;SDS011;16507;51.046;6.406;2023-12-14T11:16:54;45.22;;;21.45;;
29574;SDS011;16507;51.046;6.406;2023-12-14T11:24:30;44.75;;;21.90;;
29574;SDS011;16507;51.046;6.406;2023-12-14T11:26:56;43.90;;;20.63;;
29574;SDS011;16507;51.046;6.406;2023-12-14T11:29:22;35.40;;;18.70;;
29574;SDS011;16507;51.046;6.406;2023-12-14T11:31:48;31.83;;;17.75;;
29574;SDS011;16507;51.046;6.406;2023-12-14T11:34:16;38.13;;;19.90;;
29574;SDS011;16507;51.046;6.406;2023-12-14T11:36:42;35.88;;;19.63;;
29574;SDS011;16507;51.046;6.406;2023-12-14T11:39:11;35.53;;;17.30;;
29574;SDS011;16507;51.046;6.406;2023-12-14T11:41:37;31.10;;;17.67;;
29574;SDS011;16507;51.046;6.406;2023-12-14T11:44:03;28.67;;;16.70;;
29574;SDS011;16507;51.046;6.406;2023-12-14T11:46:29;31.52;;;16.10;;
29574;SDS011;16507;51.046;6.406;2023-12-14T11:48:56;28.58;;;16.27;;
29574;SDS011;16507;51.046;6.406;2023-12-14T11:51:22;25.20;;;15.60;;
29574;SDS011;16507;51.046;6.406;2023-12-14T11:53:47;26.95;;;16.23;;
29574;SDS011;16507;51.046;6.406;2023-12-14T11:56:14;31.80;;;16.38;;
29574;SDS011;16507;51.046;6.406;2023-12-14T11:58:43;23.77;;;15.63;;
29574;SDS011;16507;51.046;6.406;2023-12-14T12:01:12;23.42;;;14.25;;
29574;SDS011;16507;51.046;6.406;2023-12-14T12:03:41;20.58;;;14.55;;
29574;SDS011;16507;51.046;6.406;2023-12-14T12:06:29;22.10;;;14.65;;
29574;SDS011;16507;51.046;6.406;2023-12-14T12:08:55;23.08;;;14.63;;
29574;SDS011;16507;51.046;6.406;2023-12-14T12:11:21;21.95;;;13.68;;
29574;SDS011;16507;51.046;6.406;2023-12-14T12:13:52;23.63;;;14.52;;
29574;SDS011;16507;51.046;6.406;2023-12-14T12:16:20;26.58;;;14.80;;
29574;SDS011;16507;51.046;6.406;2023-12-14T12:18:46;21.10;;;13.25;;
29574;SDS011;16507;51.046;6.406;2023-12-14T12:21:12;18.85;;;12.63;;
29574;SDS011;16507;51.046;6.406;2023-12-14T12:23:38;17.85;;;11.35;;
29574;SDS011;16507;51.046;6.406;2023-12-14T12:26:03;18.23;;;12.07;;
29574;SDS011;16507;51.046;6.406;2023-12-14T12:28:30;14.80;;;11.75;;
29574;SDS011;16507;51.046;6.406;2023-12-14T12:30:56;17.27;;;11.50;;
29574;SDS011;16507;51.046;6.406;2023-12-14T12:33:22;16.65;;;10.75;;
29574;SDS011;16507;51.046;6.406;2023-12-14T12:35:48;41.97;;;12.73;;
29574;SDS011;16507;51.046;6.406;2023-12-14T12:38:14;23.17;;;12.82;;
29574;SDS011;16507;51.046;6.406;2023-12-14T12:40:41;18.70;;;11.93;;
29574;SDS011;16507;51.046;6.406;2023-12-14T12:43:07;18.95;;;12.05;;
29574;SDS011;16507;51.046;6.406;2023-12-14T12:45:32;24.10;;;11.95;;
29574;SDS011;16507;51.046;6.406;2023-12-14T12:48:00;16.48;;;11.65;;
29574;SDS011;16507;51.046;6.406;2023-12-14T12:50:28;20.48;;;12.13;;
29574;SDS011;16507;51.046;6.406;2023-12-14T12:52:54;22.35;;;12.10;;
29574;SDS011;16507;51.046;6.406;2023-12-14T12:55:20;20.55;;;13.15;;
29574;SDS011;16507;51.046;6.406;2023-12-14T12:57:45;30.65;;;12.77;;
29574;SDS011;16507;51.046;6.406;2023-12-14T13:00:12;24.60;;;12.85;;
29574;SDS011;16507;51.046;6.406;2023-12-14T13:02:41;23.30;;;13.63;;
29574;SDS011;16507;51.046;6.406;2023-12-14T13:05:08;21.38;;;12.75;;
29574;SDS011;16507;51.046;6.406;2023-12-14T13:07:35;22.88;;;12.10;;
29574;SDS011;16507;51.046;6.406;2023-12-14T13:10:04;16.92;;;12.02;;
29574;SDS011;16507;51.046;6.406;2023-12-14T13:12:31;18.48;;;11.57;;
29574;SDS011;16507;51.046;6.406;2023-12-14T13:14:58;17.83;;;11.75;;
29574;SDS011;16507;51.046;6.406;2023-12-14T13:17:24;23.98;;;12.48;;
29574;SDS011;16507;51.046;6.406;2023-12-14T13:19:51;20.05;;;12.40;;
29574;SDS011;16507;51.046;6.406;2023-12-14T13:22:17;22.45;;;12.98;;
29574;SDS011;16507;51.046;6.406;2023-12-14T13:24:42;19.52;;;12.32;;
29574;SDS011;16507;51.046;6.406;2023-12-14T13:27:08;18.33;;;12.18;;
29574;SDS011;16507;51.046;6.406;2023-12-14T13:29:33;22.38;;;13.23;;
29574;SDS011;16507;51.046;6.406;2023-12-14T13:32:00;27.55;;;15.35;;
29574;SDS011;16507;51.046;6.406;2023-12-14T13:34:26;23.77;;;14.07;;
29574;SDS011;16507;51.046;6.406;2023-12-14T13:36:59;25.85;;;15.18;;
29574;SDS011;16507;51.046;6.406;2023-12-14T13:39:26;27.95;;;14.80;;
29574;SDS011;16507;51.046;6.406;2023-12-14T13:41:52;26.45;;;15.00;;
29574;SDS011;16507;51.046;6.406;2023-12-14T13:44:17;22.25;;;13.52;;
29574;SDS011;16507;51.046;6.406;2023-12-14T13:46:43;24.52;;;14.02;;
29574;SDS011;16507;51.046;6.406;2023-12-14T13:49:09;20.45;;;13.65;;
29574;SDS011;16507;51.046;6.406;2023-12-14T13:51:35;23.25;;;13.15;;
29574;SDS011;16507;51.046;6.406;2023-12-14T13:54:00;26.20;;;13.88;;
29574;SDS011;16507;51.046;6.406;2023-12-14T13:56:26;22.83;;;12.95;;
29574;SDS011;16507;51.046;6.406;2023-12-14T13:58:52;24.13;;;14.15;;
29574;SDS011;16507;51.046;6.406;2023-12-14T14:01:18;20.30;;;14.07;;
29574;SDS011;16507;51.046;6.406;2023-12-14T14:03:44;27.40;;;14.25;;
29574;SDS011;16507;51.046;6.406;2023-12-14T14:06:11;21.65;;;14.40;;
29574;SDS011;16507;51.046;6.406;2023-12-14T14:08:38;24.48;;;14.50;;
29574;SDS011;16507;51.046;6.406;2023-12-14T14:11:04;21.88;;;14.18;;
29574;SDS011;16507;51.046;6.406;2023-12-14T14:13:30;25.85;;;14.88;;
29574;SDS011;16507;51.046;6.406;2023-12-14T14:15:55;22.35;;;14.98;;
29574;SDS011;16507;51.046;6.406;2023-12-14T14:18:21;24.80;;;15.43;;
29574;SDS011;16507;51.046;6.406;2023-12-14T14:20:47;18.23;;;13.25;;
29574;SDS011;16507;51.046;6.406;2023-12-14T14:23:12;29.67;;;14.07;;
29574;SDS011;16507;51.046;6.406;2023-12-14T14:25:38;22.50;;;13.13;;